createdAt,value
2023-03-27T00:00:42.377Z,96531.44
2023-03-27T00:03:23.883Z,96525.88
2023-03-27T00:06:04.414Z,96527.77
2023-03-27T00:08:36.021Z,96518.98
2023-03-27T00:11:06.320Z,96504.05
2023-03-27T00:13:49.032Z,96504.27
2023-03-27T00:16:23.700Z,96495.61
2023-03-27T00:18:53.559Z,96484.77
2023-03-27T00:21:22.668Z,96471.78
2023-03-27T00:23:54.517Z,96459.49
2023-03-27T00:26:25.687Z,96441.56
2023-03-27T00:28:59.693Z,96433.95
2023-03-27T00:31:31.286Z,96424.33
2023-03-27T00:33:59.937Z,96411.02
2023-03-27T00:36:31.627Z,96405.96
2023-03-27T00:39:00.263Z,96398.39
2023-03-27T00:41:34.123Z,96396.30
2023-03-27T00:44:04.306Z,96392.36
2023-03-27T00:46:45.789Z,96397.75
2023-03-27T00:49:17.260Z,96404.23
2023-03-27T00:51:53.406Z,96409.98
2023-03-27T00:54:33.817Z,96416.38
2023-03-27T00:57:06.238Z,96415.83
2023-03-27T00:59:39.309Z,96416.83
2023-03-27T01:02:09.243Z,96413.63
2023-03-27T01:04:41.906Z,96414.45
2023-03-27T01:07:16.216Z,96410.66
2023-03-27T01:09:47.843Z,96401.09
2023-03-27T01:12:45.513Z,96395.56
2023-03-27T01:15:35.484Z,96389.09
2023-03-27T01:18:29.230Z,96388.69
2023-03-27T01:21:17.933Z,96388.09
2023-03-27T01:24:14.971Z,96390.61
2023-03-27T01:27:04.239Z,96390.59
2023-03-27T01:29:58.902Z,96392.05
2023-03-27T01:32:27.482Z,96386.39
2023-03-27T01:35:11.172Z,96377.78
2023-03-27T01:38:16.060Z,96377.77
2023-03-27T01:41:05.906Z,96382.55
2023-03-27T01:43:46.885Z,96377.19
2023-03-27T01:46:35.924Z,96372.18
2023-03-27T01:49:30.164Z,96367.42
2023-03-27T01:52:03.987Z,96362.54
2023-03-27T01:54:58.529Z,96354.06
2023-03-27T01:57:34.688Z,96348.13
2023-03-27T02:00:28.448Z,96343.49
2023-03-27T02:03:29.418Z,96320.55
2023-03-27T02:06:08.856Z,96317.33
2023-03-27T02:08:47.061Z,96307.22
2023-03-27T02:11:19.080Z,96296.70
2023-03-27T02:13:52.516Z,96295.16
2023-03-27T02:16:30.727Z,96293.77
2023-03-27T02:19:03.443Z,96291.68
2023-03-27T02:21:38.439Z,96289.76
2023-03-27T02:24:09.140Z,96288.02
2023-03-27T02:26:40.616Z,96280.17
2023-03-27T02:29:27.621Z,96283.48
2023-03-27T02:32:21.087Z,96279.38
2023-03-27T02:35:03.970Z,96273.06
2023-03-27T02:37:38.402Z,96264.02
2023-03-27T02:40:46.935Z,96260.73
2023-03-27T02:43:48.900Z,96254.74
2023-03-27T02:46:40.395Z,96257.73
2023-03-27T02:49:22.239Z,96251.32
2023-03-27T02:52:01.259Z,96247.77
2023-03-27T02:54:36.226Z,96250.45
2023-03-27T02:57:11.907Z,96252.21
2023-03-27T03:00:24.309Z,96249.40
2023-03-27T03:03:08.294Z,96244.55
2023-03-27T03:05:41.431Z,96246.43
2023-03-27T03:08:10.429Z,96245.46
2023-03-27T03:10:46.337Z,96246.08
2023-03-27T03:13:16.332Z,96245.27
2023-03-27T03:15:46.871Z,96246.88
2023-03-27T03:18:16.586Z,96246.98
2023-03-27T03:20:46.104Z,96243.02
2023-03-27T03:23:15.007Z,96237.05
2023-03-27T03:25:45.859Z,96235.91
2023-03-27T03:28:18.420Z,96229.33
2023-03-27T03:30:50.742Z,96224.38
2023-03-27T03:33:20.742Z,96220.50
2023-03-27T03:35:50.743Z,96216.55
2023-03-27T03:38:42.183Z,96201.04
2023-03-27T03:41:15.061Z,96185.14
2023-03-27T03:43:43.600Z,96189.02
2023-03-27T03:46:12.350Z,96195.74
2023-03-27T03:48:42.542Z,96201.87
2023-03-27T03:51:12.090Z,96205.23
2023-03-27T03:53:43.820Z,96196.36
2023-03-27T03:56:12.534Z,96183.84
2023-03-27T03:58:41.293Z,96176.94
2023-03-27T04:01:10.479Z,96174.13
2023-03-27T04:03:48.444Z,96162.86
2023-03-27T04:06:21.206Z,96148.81
2023-03-27T04:08:50.211Z,96135.05
2023-03-27T04:11:41.826Z,96133.61
2023-03-27T04:14:26.133Z,96136.85
2023-03-27T04:16:59.428Z,96135.89
2023-03-27T04:19:33.925Z,96134.17
2023-03-27T04:22:07.163Z,96131.03
2023-03-27T04:24:37.485Z,96133.54
2023-03-27T04:27:06.114Z,96132.44
2023-03-27T04:29:42.688Z,96142.28
2023-03-27T04:32:30.422Z,96146.67
2023-03-27T04:35:36.260Z,96136.24
2023-03-27T04:38:15.643Z,96134.67
2023-03-27T04:40:49.839Z,96126.60
2023-03-27T04:43:26.337Z,96112.67
2023-03-27T04:45:57.517Z,96099.89
2023-03-27T04:48:30.900Z,96097.31
2023-03-27T04:51:03.394Z,96086.29
2023-03-27T04:53:37.947Z,96084.40
2023-03-27T04:56:07.465Z,96091.60
2023-03-27T04:58:38.057Z,96090.23
2023-03-27T05:01:12.706Z,96088.98
2023-03-27T05:04:03.962Z,96081.66
2023-03-27T05:06:49.966Z,96071.38
2023-03-27T05:09:19.312Z,96061.60
2023-03-27T05:11:51.690Z,96052.08
2023-03-27T05:14:22.603Z,96053.95
2023-03-27T05:16:58.925Z,96060.48
2023-03-27T05:19:27.719Z,96055.77
2023-03-27T05:22:01.317Z,96050.89
2023-03-27T05:24:34.834Z,96043.75
2023-03-27T05:27:06.859Z,96040.89
2023-03-27T05:29:46.846Z,96040.48
2023-03-27T05:32:16.749Z,96042.06
2023-03-27T05:34:54.869Z,96041.73
2023-03-27T05:37:31.687Z,96041.75
2023-03-27T05:40:15.746Z,96043.33
2023-03-27T05:42:45.603Z,96041.64
2023-03-27T05:45:14.635Z,96043.31
2023-03-27T05:47:52.205Z,96043.38
2023-03-27T05:50:23.978Z,96044.72
2023-03-27T05:52:58.858Z,96043.52
2023-03-27T05:55:34.512Z,96035.98
2023-03-27T05:58:03.615Z,96037.94
2023-03-27T06:00:36.529Z,96024.58
2023-03-27T06:03:05.343Z,96021.20
2023-03-27T06:05:55.236Z,96022.43
2023-03-27T06:08:29.418Z,96013.27
2023-03-27T06:11:10.818Z,96012.52
2023-03-27T06:13:49.637Z,96011.08
2023-03-27T06:16:21.990Z,96014.66
2023-03-27T06:19:10.796Z,96020.01
2023-03-27T06:21:48.411Z,96014.04
2023-03-27T06:24:17.057Z,96009.91
2023-03-27T06:26:46.325Z,96009.67
2023-03-27T06:29:15.019Z,96011.62
2023-03-27T06:31:48.545Z,96011.14
2023-03-27T06:34:25.384Z,96013.44
2023-03-27T06:37:00.037Z,96007.83
2023-03-27T06:39:34.625Z,95997.68
2023-03-27T06:42:03.850Z,95991.46
2023-03-27T06:44:36.574Z,95985.85
2023-03-27T06:47:23.183Z,95980.87
2023-03-27T06:50:10.711Z,95968.71
2023-03-27T06:52:39.320Z,95966.85
2023-03-27T06:55:34.951Z,95969.48
2023-03-27T06:58:04.175Z,95970.39
2023-03-27T07:00:37.510Z,95971.67
2023-03-27T07:03:23.426Z,95976.52
2023-03-27T07:06:19.591Z,95978.50
2023-03-27T07:09:01.421Z,95971.85
2023-03-27T07:11:32.182Z,95962.57
2023-03-27T07:14:04.452Z,95966.69
2023-03-27T07:16:33.373Z,95965.16
2023-03-27T07:19:05.724Z,95962.40
2023-03-27T07:21:34.919Z,95965.52
2023-03-27T07:24:03.806Z,95969.92
2023-03-27T07:26:34.646Z,95970.33
2023-03-27T07:29:26.129Z,95968.80
2023-03-27T07:31:59.701Z,95971.27
2023-03-27T07:34:36.031Z,95965.98
2023-03-27T07:37:07.484Z,95966.04
2023-03-27T07:39:38.917Z,95961.84
2023-03-27T07:42:08.924Z,95956.27
2023-03-27T07:44:52.157Z,95951.98
2023-03-27T07:47:21.050Z,95951.69
2023-03-27T07:49:49.460Z,95951.80
2023-03-27T07:52:22.039Z,95946.91
2023-03-27T07:54:57.207Z,95946.30
2023-03-27T07:57:33.179Z,95940.46
2023-03-27T08:03:36.984Z,95928.11
2023-03-27T08:06:08.956Z,95928.30
2023-03-27T08:08:37.647Z,95931.48
2023-03-27T08:11:13.494Z,95933.63
2023-03-27T08:13:48.675Z,95935.54
2023-03-27T08:16:18.997Z,95942.55
2023-03-27T08:18:49.888Z,95936.47
2023-03-27T08:21:19.134Z,95933.80
2023-03-27T08:23:50.855Z,95928.80
2023-03-27T08:26:35.249Z,95926.06
2023-03-27T08:29:08.508Z,95921.18
2023-03-27T08:31:38.236Z,95916.73
2023-03-27T08:34:07.077Z,95914.52
2023-03-27T08:36:52.882Z,95918.42
2023-03-27T08:39:24.972Z,95914.83
2023-03-27T08:41:58.359Z,95914.83
2023-03-27T08:44:34.804Z,95911.77
2023-03-27T08:47:17.109Z,95911.75
2023-03-27T08:49:58.006Z,95916.02
2023-03-27T08:52:47.151Z,95917.02
2023-03-27T08:55:37.602Z,95909.17
2023-03-27T08:58:20.147Z,95907.80
2023-03-27T09:01:01.450Z,95905.36
2023-03-27T09:03:41.165Z,95901.30
2023-03-27T09:06:15.529Z,95900.17
2023-03-27T09:08:54.431Z,95905.13
2023-03-27T09:11:41.583Z,95904.10
2023-03-27T09:14:37.640Z,95902.03
2023-03-27T09:17:28.079Z,95901.87
2023-03-27T09:20:32.504Z,95898.44
2023-03-27T09:23:11.112Z,95894.52
2023-03-27T09:26:12.911Z,95890.38
2023-03-27T09:29:09.254Z,95889.62
2023-03-27T09:31:50.755Z,95887.38
2023-03-27T09:34:25.542Z,95875.70
2023-03-27T09:36:56.156Z,95867.94
2023-03-27T09:39:32.332Z,95866.54
2023-03-27T09:42:29.048Z,95864.61
2023-03-27T09:45:02.158Z,95861.00
2023-03-27T09:47:45.733Z,95863.48
2023-03-27T09:50:35.252Z,95864.27
2023-03-27T09:53:24.112Z,95865.55
2023-03-27T09:56:07.461Z,95869.07
2023-03-27T09:58:44.305Z,95865.19
2023-03-27T10:01:28.165Z,95858.98
2023-03-27T10:04:01.953Z,95852.13
2023-03-27T10:06:43.440Z,95850.14
2023-03-27T10:09:25.141Z,95847.38
2023-03-27T10:12:05.002Z,95843.35
2023-03-27T10:14:44.517Z,95837.04
2023-03-27T10:17:26.522Z,95835.68
2023-03-27T10:20:16.786Z,95839.58
2023-03-27T10:23:01.027Z,95841.67
2023-03-27T10:25:38.153Z,95840.88
2023-03-27T10:28:34.805Z,95835.88
2023-03-27T10:31:32.601Z,95826.25
2023-03-27T10:34:34.838Z,95814.75
2023-03-27T10:37:34.480Z,95803.81
2023-03-27T10:40:36.621Z,95798.89
2023-03-27T10:43:18.627Z,95798.04
2023-03-27T10:45:53.578Z,95800.95
2023-03-27T10:49:04.212Z,95808.50
2023-03-27T10:51:49.625Z,95811.63
2023-03-27T10:55:02.712Z,95811.67
2023-03-27T10:57:37.961Z,95803.66
2023-03-27T11:00:18.809Z,95799.26
2023-03-27T11:02:59.726Z,95798.60
2023-03-27T11:05:36.896Z,95795.98
2023-03-27T11:08:20.636Z,95790.66
2023-03-27T11:10:54.237Z,95788.89
2023-03-27T11:13:38.718Z,95780.01
2023-03-27T11:16:24.104Z,95783.44
2023-03-27T11:19:59.124Z,95785.30
2023-03-27T11:22:52.887Z,95778.84
2023-03-27T11:25:43.471Z,95771.25
2023-03-27T11:28:28.842Z,95764.34
2023-03-27T11:31:38.442Z,95758.68
2023-03-27T11:34:15.572Z,95750.77
2023-03-27T11:37:30.086Z,95743.84
2023-03-27T11:40:09.691Z,95742.54
2023-03-27T11:42:43.707Z,95731.84
2023-03-27T11:45:19.449Z,95723.40
2023-03-27T11:47:52.192Z,95719.51
2023-03-27T11:50:24.183Z,95715.78
2023-03-27T11:52:52.762Z,95713.48
2023-03-27T11:55:38.051Z,95710.09
2023-03-27T11:58:30.900Z,95706.08
2023-03-27T12:01:17.996Z,95708.23
2023-03-27T12:04:24.307Z,95706.13
2023-03-27T12:07:09.858Z,95697.68
2023-03-27T12:10:02.775Z,95695.94
2023-03-27T12:13:24.317Z,95690.02
2023-03-27T12:16:15.170Z,95686.66
2023-03-27T12:19:02.501Z,95685.53
2023-03-27T12:21:55.843Z,95683.87
2023-03-27T12:24:36.353Z,95687.80
2023-03-27T12:27:45.349Z,95692.75
2023-03-27T12:31:04.293Z,95696.99
2023-03-27T12:33:45.233Z,95696.47
2023-03-27T12:36:21.211Z,95694.98
2023-03-27T12:38:53.193Z,95693.95
2023-03-27T12:41:37.756Z,95694.18
2023-03-27T12:44:31.280Z,95697.63
2023-03-27T12:47:33.214Z,95692.88
2023-03-27T12:50:28.404Z,95691.46
2023-03-27T12:52:57.913Z,95691.30
2023-03-27T12:55:36.441Z,95689.55
2023-03-27T12:58:05.905Z,95687.85
2023-03-27T13:01:00.560Z,95682.08
2023-03-27T13:03:56.001Z,95686.08
2023-03-27T13:06:47.529Z,95685.80
2023-03-27T13:09:33.537Z,95680.05
2023-03-27T13:12:50.179Z,95679.52
2023-03-27T13:15:22.108Z,95682.48
2023-03-27T13:18:00.853Z,95677.77
2023-03-27T13:20:35.466Z,95678.39
2023-03-27T13:23:10.376Z,95678.85
2023-03-27T13:26:06.761Z,95669.73
2023-03-27T13:28:42.998Z,95670.30
2023-03-27T13:31:41.547Z,95667.11
2023-03-27T13:34:42.172Z,95663.95
2023-03-27T13:37:15.383Z,95664.67
2023-03-27T13:39:59.528Z,95661.05
2023-03-27T13:42:34.158Z,95661.65
2023-03-27T13:45:18.934Z,95662.45
2023-03-27T13:48:17.834Z,95663.08
2023-03-27T13:51:17.933Z,95663.53
2023-03-27T13:54:05.463Z,95664.16
2023-03-27T13:56:50.631Z,95670.36
2023-03-27T13:59:48.607Z,95675.00
2023-03-27T14:02:51.998Z,95674.55
2023-03-27T14:05:49.672Z,95651.95
2023-03-27T14:08:21.304Z,95628.50
2023-03-27T14:11:23.090Z,95648.95
2023-03-27T14:14:12.258Z,95649.86
2023-03-27T14:17:15.220Z,95640.27
2023-03-27T14:20:01.561Z,95638.02
2023-03-27T14:22:43.484Z,95643.41
2023-03-27T14:25:20.074Z,95646.73
2023-03-27T14:28:01.724Z,95640.37
2023-03-27T14:30:42.798Z,95629.46
2023-03-27T14:34:10.133Z,95625.21
2023-03-27T14:36:42.602Z,95629.44
2023-03-27T14:39:24.156Z,95633.75
2023-03-27T14:42:00.670Z,95641.45
2023-03-27T14:44:33.560Z,95645.38
2023-03-27T14:47:12.197Z,95649.86
2023-03-27T14:49:47.627Z,95644.72
2023-03-27T14:52:27.151Z,95639.88
2023-03-27T14:55:19.605Z,95640.55
2023-03-27T14:57:57.412Z,95641.96
2023-03-27T15:00:33.703Z,95638.54
2023-03-27T15:03:24.739Z,95639.38
2023-03-27T15:05:58.873Z,95639.98
2023-03-27T15:08:37.261Z,95640.50
2023-03-27T15:11:22.066Z,95640.48
2023-03-27T15:17:23.919Z,95636.89
2023-03-27T15:20:05.036Z,95640.88
2023-03-27T15:22:42.259Z,95645.17
2023-03-27T15:25:18.061Z,95650.23
2023-03-27T15:27:53.606Z,95653.45
2023-03-27T15:30:29.375Z,95658.27
2023-03-27T15:33:02.356Z,95661.04
2023-03-27T15:35:42.873Z,95663.71
2023-03-27T15:38:17.407Z,95670.35
2023-03-27T15:40:46.895Z,95677.09
2023-03-27T15:43:16.478Z,95685.03
2023-03-27T15:45:57.658Z,95690.80
2023-03-27T15:48:40.573Z,95702.57
2023-03-27T15:51:16.206Z,95704.25
2023-03-27T15:53:50.118Z,95711.58
2023-03-27T15:56:26.597Z,95714.83
2023-03-27T15:59:02.263Z,95712.75
2023-03-27T16:01:36.407Z,95717.11
2023-03-27T16:04:20.711Z,95724.23
2023-03-27T16:06:52.576Z,95731.56
2023-03-27T16:09:26.036Z,95728.98
2023-03-27T16:11:56.663Z,95734.12
2023-03-27T16:14:41.025Z,95735.67
2023-03-27T16:17:14.975Z,95734.19
2023-03-27T16:19:53.139Z,95729.77
2023-03-27T16:22:24.441Z,95730.10
2023-03-27T16:24:54.593Z,95733.75
2023-03-27T16:27:32.089Z,95736.91
2023-03-27T16:30:00.780Z,95738.34
2023-03-27T16:32:30.342Z,95734.63
2023-03-27T16:34:59.179Z,95731.86
2023-03-27T16:37:28.275Z,95721.58
2023-03-27T16:39:59.457Z,95720.08
2023-03-27T16:42:28.128Z,95719.73
2023-03-27T16:44:56.684Z,95724.46
2023-03-27T16:47:25.661Z,95728.55
2023-03-27T16:50:10.423Z,95728.34
2023-03-27T16:52:40.273Z,95725.44
2023-03-27T16:55:14.041Z,95719.69
2023-03-27T16:57:43.157Z,95722.58
2023-03-27T17:00:13.593Z,95722.94
2023-03-27T17:02:44.795Z,95727.85
2023-03-27T17:05:14.657Z,95733.98
2023-03-27T17:07:46.725Z,95733.41
2023-03-27T17:10:16.008Z,95728.83
2023-03-27T17:12:44.792Z,95727.95
2023-03-27T17:15:15.264Z,95735.63
2023-03-27T17:17:45.258Z,95734.90
2023-03-27T17:20:14.242Z,95737.20
2023-03-27T17:22:42.863Z,95737.75
2023-03-27T17:25:11.799Z,95736.56
2023-03-27T17:27:42.608Z,95736.65
2023-03-27T17:30:12.139Z,95732.89
2023-03-27T17:32:40.968Z,95732.05
2023-03-27T17:35:10.682Z,95727.77
2023-03-27T17:37:39.774Z,95731.79
2023-03-27T17:40:12.670Z,95736.73
2023-03-27T17:42:41.463Z,95742.02
2023-03-27T17:45:10.555Z,95744.80
2023-03-27T17:47:39.072Z,95748.40
2023-03-27T17:50:08.340Z,95752.81
2023-03-27T17:52:36.956Z,95749.23
2023-03-27T17:55:08.243Z,95751.39
2023-03-27T17:57:39.852Z,95752.48
2023-03-27T18:00:12.192Z,95749.81
2023-03-27T18:02:44.236Z,95750.40
2023-03-27T18:05:15.827Z,95754.41
2023-03-27T18:07:44.647Z,95759.64
2023-03-27T18:10:17.432Z,95761.48
2023-03-27T18:12:46.452Z,95764.50
2023-03-27T18:15:15.146Z,95763.31
2023-03-27T18:17:47.501Z,95765.31
2023-03-27T18:20:16.226Z,95766.90
2023-03-27T18:22:53.180Z,95767.77
2023-03-27T18:25:21.649Z,95771.80
2023-03-27T18:27:52.364Z,95773.08
2023-03-27T18:30:21.100Z,95775.08
2023-03-27T18:32:49.871Z,95772.36
2023-03-27T18:35:23.131Z,95772.57
2023-03-27T18:37:53.983Z,95770.88
2023-03-27T18:40:24.977Z,95766.71
2023-03-27T18:42:53.772Z,95771.05
2023-03-27T18:45:22.992Z,95774.58
2023-03-27T18:47:51.602Z,95778.60
2023-03-27T18:50:20.655Z,95780.71
2023-03-27T18:52:49.229Z,95784.70
2023-03-27T18:55:21.224Z,95785.48
2023-03-27T18:57:50.036Z,95783.84
2023-03-27T19:00:20.561Z,95784.48
2023-03-27T19:02:52.380Z,95785.02
2023-03-27T19:05:21.211Z,95785.20
2023-03-27T19:07:49.935Z,95788.34
2023-03-27T19:10:18.537Z,95791.73
2023-03-27T19:12:59.445Z,95798.11
2023-03-27T19:16:14.311Z,95804.44
2023-03-27T19:19:07.063Z,95802.86
2023-03-27T19:21:50.544Z,95802.83
2023-03-27T19:24:25.798Z,95806.35
2023-03-27T19:26:54.446Z,95801.78
2023-03-27T19:29:22.998Z,95800.88
2023-03-27T19:31:58.852Z,95799.27
2023-03-27T19:34:40.387Z,95801.42
2023-03-27T19:37:11.746Z,95803.61
2023-03-27T19:39:40.455Z,95804.22
2023-03-27T19:42:09.013Z,95802.95
2023-03-27T19:44:38.915Z,95804.89
2023-03-27T19:47:07.930Z,95803.98
2023-03-27T19:49:37.577Z,95803.84
2023-03-27T19:52:21.038Z,95803.45
2023-03-27T19:54:49.591Z,95801.58
2023-03-27T19:57:18.318Z,95798.91
2023-03-27T19:59:47.155Z,95801.54
2023-03-27T20:02:17.511Z,95804.05
2023-03-27T20:04:48.943Z,95804.79
2023-03-27T20:07:17.539Z,95804.08
2023-03-27T20:09:46.403Z,95806.01
2023-03-27T20:12:14.979Z,95807.58
2023-03-27T20:14:46.520Z,95809.05
2023-03-27T20:17:27.976Z,95808.52
2023-03-27T20:20:00.982Z,95812.55
2023-03-27T20:22:29.791Z,95817.45
2023-03-27T20:24:58.827Z,95831.60
2023-03-27T20:27:30.857Z,95844.06
2023-03-27T20:30:02.256Z,95863.56
2023-03-27T20:32:31.485Z,95871.98
2023-03-27T20:35:05.205Z,95887.58
2023-03-27T20:37:42.347Z,95896.16
2023-03-27T20:40:20.892Z,95909.10
2023-03-27T20:42:54.381Z,95922.86
2023-03-27T20:45:26.960Z,95929.37
2023-03-27T20:48:03.426Z,95945.82
2023-03-27T20:50:35.487Z,95962.02
2023-03-27T20:53:04.762Z,95971.95
2023-03-27T20:55:37.343Z,95976.08
2023-03-27T20:58:10.196Z,95992.27
2023-03-27T21:00:39.155Z,96003.20
2023-03-27T21:03:12.231Z,96004.45
2023-03-27T21:05:41.473Z,96009.15
2023-03-27T21:08:10.220Z,96018.63
2023-03-27T21:10:39.034Z,96023.50
2023-03-27T21:13:08.304Z,96033.85
2023-03-27T21:15:39.067Z,96039.98
2023-03-27T21:18:07.717Z,96041.60
2023-03-27T21:20:36.261Z,96043.05
2023-03-27T21:23:07.950Z,96032.27
2023-03-27T21:25:36.550Z,96035.73
2023-03-27T21:28:07.217Z,96039.77
2023-03-27T21:30:46.649Z,96046.41
2023-03-27T21:33:17.365Z,96054.27
2023-03-27T21:35:47.800Z,96061.19
2023-03-27T21:38:18.142Z,96064.74
2023-03-27T21:40:47.670Z,96064.95
2023-03-27T21:43:16.363Z,96067.59
2023-03-27T21:45:46.939Z,96074.73
2023-03-27T21:48:15.805Z,96073.52
2023-03-27T21:50:44.760Z,96076.75
2023-03-27T21:53:13.855Z,96078.73
2023-03-27T21:55:42.709Z,96080.05
2023-03-27T21:58:11.302Z,96085.57
2023-03-27T22:00:40.359Z,96090.45
2023-03-27T22:03:09.032Z,96096.87
2023-03-27T22:05:38.756Z,96101.23
2023-03-27T22:08:10.554Z,96107.33
2023-03-27T22:10:39.029Z,96116.52
2023-03-27T22:13:07.593Z,96126.54
2023-03-27T22:15:36.491Z,96137.85
2023-03-27T22:18:05.089Z,96147.00
2023-03-27T22:20:33.703Z,96152.07
2023-03-27T22:23:07.771Z,96162.92
2023-03-27T22:25:36.717Z,96163.66
2023-03-27T22:28:05.454Z,96171.84
2023-03-27T22:30:37.037Z,96181.48
2023-03-27T22:33:05.672Z,96191.21
2023-03-27T22:35:34.314Z,96193.89
2023-03-27T22:38:06.167Z,96201.08
2023-03-27T22:40:37.765Z,96204.81
2023-03-27T22:43:06.427Z,96211.02
2023-03-27T22:45:38.173Z,96217.23
2023-03-27T22:48:08.901Z,96225.41
2023-03-27T22:50:37.573Z,96227.82
2023-03-27T22:53:06.072Z,96235.01
2023-03-27T22:55:40.936Z,96243.66
2023-03-27T22:58:09.526Z,96247.52
2023-03-27T23:00:41.640Z,96250.98
2023-03-27T23:03:11.307Z,96257.05
2023-03-27T23:05:49.206Z,96263.24
2023-03-27T23:08:27.431Z,96267.21
2023-03-27T23:11:02.829Z,96264.52
2023-03-27T23:13:33.526Z,96275.80
2023-03-27T23:16:04.774Z,96281.54
2023-03-27T23:18:45.690Z,96278.63
2023-03-27T23:21:18.087Z,96278.70
2023-03-27T23:23:53.990Z,96285.17
2023-03-27T23:26:30.316Z,96290.55
2023-03-27T23:29:04.766Z,96292.46
2023-03-27T23:31:37.863Z,96295.96
2023-03-27T23:34:12.211Z,96303.91
2023-03-27T23:36:46.037Z,96302.41
2023-03-27T23:39:17.280Z,96306.81
2023-03-27T23:41:48.475Z,96314.12
2023-03-27T23:44:17.769Z,96321.50
2023-03-27T23:46:46.297Z,96327.96
2023-03-27T23:49:17.378Z,96329.45
2023-03-27T23:51:49.007Z,96340.06
2023-03-27T23:54:17.513Z,96352.38
2023-03-27T23:56:51.909Z,96354.16
2023-03-27T23:59:21.002Z,96362.27
